Gibson, Louisiana
Current Conditions -  °F | °C
As of 5:15 PM on Wednesday 22 Oct 2014 (Local Time) from KPTN Reporting Station
Clear Clear  
Wind Chill: 79°   Ceiling: Unl
Heat Index: 80°   Visibility: 10mi
Dew Point: 57°   Wind: 9mph
Humidity: 47%   Direction: 40°NE
Pressure: 30.04"   Gusts: NA
Location:  29.69°N, 90.99°W
Report Text: KPTN 222215Z AUTO 04008KT 10SM CLR 26/14 A3004 RMK AO1
Loading
Personal Weather Stations






























Interactive Weather Map
Tropical Storm Tracking
New forecast layout! Learn more

10-Day Weather Forecast

Advertisements
Track Severe Weather on mobile